This is the latest recevied weather packets stored in our database for station/object SP9INZ-13. If no packets are shown the sender has not sent any weather packets the latest 10 day(s).
| Time | Temp. | Humidity | Pressure | Rain* | Wind** | Luminosity | Snow |
|---|---|---|---|---|---|---|---|
| 1777813388 | 26.11° C | 23% | 1019.9 hPa | - | - | - | - |
| 1777812429 | 26.11° C | 26% | 1019.9 hPa | - | - | - | - |
| 1777811471 | 26.67° C | 24% | 1019.9 hPa | - | - | - | - |
| 1777810513 | 26.11° C | 26% | 1019.9 hPa | - | - | - | - |
| 1777809555 | 25° C | 25% | 1020.6 hPa | - | - | - | - |
| 1777808597 | 26.11° C | 27% | 1019.9 hPa | - | - | - | - |
| 1777807639 | 24.44° C | 30% | 1020.9 hPa | - | - | - | - |
| 1777806681 | 24.44° C | 31% | 1020.6 hPa | - | - | - | - |
| 1777805723 | 23.89° C | 32% | 1020.8 hPa | - | - | - | - |
| 1777804765 | 22.78° C | 33% | 1021.4 hPa | - | - | - | - |
| 1777803807 | 22.22° C | 34% | 1021.9 hPa | - | - | - | - |
| 1777802849 | 21.67° C | 36% | 1022 hPa | - | - | - | - |
| 1777801892 | 22.78° C | 36% | 1021.5 hPa | - | - | - | - |
| 1777800933 | 22.22° C | 37% | 1021.8 hPa | - | - | - | - |
| 1777799975 | 21.11° C | 39% | 1022.3 hPa | - | - | - | - |
| 1777799018 | 21.11° C | 39% | 1022.3 hPa | - | - | - | - |
| 1777798059 | 21.11° C | 40% | 1022.4 hPa | - | - | - | - |
| 1777797101 | 20° C | 40% | 1022.9 hPa | - | - | - | - |
| 1777796143 | 19.44° C | 41% | 1023 hPa | - | - | - | - |
| 1777795185 | 18.89° C | 43% | 1023.2 hPa | - | - | - | - |
| 1777794227 | 18.89° C | 43% | 1023.1 hPa | - | - | - | - |
| 1777793269 | 18.89° C | 44% | 1022.9 hPa | - | - | - | - |
| 1777792311 | 18.89° C | 46% | 1022.4 hPa | - | - | - | - |
| 1777791353 | 17.22° C | 49% | 1023.1 hPa | - | - | - | - |
| 1777790395 | 16.67° C | 51% | 1023.4 hPa | - | - | - | - |
* Rain since midnight (hover to see other rain measurements)
** Current wind speed in m/s (hover to see current wind gust speed)